Terminal Aerodrome Forecast
Issued by NWS La Crosse, WI

Home | Current Version | Previous Version | Text Only | Print | Product List | Glossary On
Versions: 1 2 3 4 5 6 7 8 9 10 11 12 13 14 15 16 17 18 19 20 21 22 23 24 25 26 27 28
000
FTUS43 KARX 200829 AAA
TAFLSE
TAF AMD
KLSE 200829Z 2008/2106 17016KT 4SM -RA BR SCT015 BKN080
     FM200930 19012KT P6SM BKN120
     FM201400 28011KT P6SM SCT250
     FM210000 27005KT P6SM SCT250
     FM210400 27006KT P6SM VCSH BKN050=

USA.gov is the U.S. government's official web portal to all federal, state and local government web resources and services.